createdAt,value
2024-01-28T00:01:03.131Z,0.90
2024-01-28T00:04:06.102Z,1.00
2024-01-28T00:07:08.511Z,1.00
2024-01-28T00:10:10.936Z,1.10
2024-01-28T00:13:13.393Z,1.20
2024-01-28T00:16:16.981Z,1.10
2024-01-28T00:19:19.431Z,0.90
2024-01-28T00:22:22.034Z,0.60
2024-01-28T00:25:24.043Z,0.30
2024-01-28T00:28:26.129Z,0.10
2024-01-28T00:31:28.448Z,-0.10
2024-01-28T00:34:31.044Z,-0.30
2024-01-28T00:37:33.533Z,-0.20
2024-01-28T00:40:35.876Z,-0.20
2024-01-28T00:43:38.148Z,-0.30
2024-01-28T00:46:40.211Z,-0.20
2024-01-28T00:49:42.964Z,-0.10
2024-01-28T00:52:45.498Z,-0.10
2024-01-28T00:55:47.544Z,-0.20
2024-01-28T00:58:49.927Z,-0.40
2024-01-28T01:01:53.669Z,-0.40
2024-01-28T01:04:55.861Z,-0.50
2024-01-28T01:07:58.211Z,-0.60
2024-01-28T01:11:04.450Z,-0.70
2024-01-28T01:14:06.727Z,-0.60
2024-01-28T01:17:09.070Z,-0.60
2024-01-28T01:20:12.131Z,-0.40
2024-01-28T01:23:14.417Z,-0.30
2024-01-28T01:26:16.473Z,-0.30
2024-01-28T01:29:19.078Z,-0.20
2024-01-28T01:32:21.512Z,-0.20
2024-01-28T01:35:24.034Z,-0.10
2024-01-28T01:38:26.420Z,-0.10
2024-01-28T01:41:28.740Z,0.00
2024-01-28T01:44:31.244Z,0.20
2024-01-28T01:47:33.970Z,0.40
2024-01-28T01:50:36.579Z,0.50
2024-01-28T01:53:40.313Z,0.60
2024-01-28T01:56:42.627Z,0.60
2024-01-28T01:59:46.911Z,0.70
2024-01-28T02:02:49.130Z,0.70
2024-01-28T02:05:51.514Z,0.70
2024-01-28T02:08:54.948Z,0.70
2024-01-28T02:11:57.812Z,0.70
2024-01-28T02:15:07.880Z,0.60
2024-01-28T02:18:10.386Z,0.40
2024-01-28T02:21:12.611Z,0.30
2024-01-28T02:24:15.032Z,0.20
2024-01-28T02:27:17.529Z,0.20
2024-01-28T02:30:20.408Z,0.10
2024-01-28T02:33:22.715Z,0.10
2024-01-28T02:36:26.048Z,0.10
2024-01-28T02:39:28.419Z,0.20
2024-01-28T02:42:30.860Z,0.20
2024-01-28T02:45:33.179Z,0.30
2024-01-28T02:48:35.742Z,0.30
2024-01-28T02:51:37.995Z,0.30
2024-01-28T02:54:41.930Z,0.30
2024-01-28T02:57:44.586Z,0.20
2024-01-28T03:00:47.356Z,0.30
2024-01-28T03:03:49.636Z,0.40
2024-01-28T03:06:52.150Z,0.50
2024-01-28T03:09:54.565Z,0.60
2024-01-28T03:12:56.751Z,0.60
2024-01-28T03:15:59.496Z,0.60
2024-01-28T03:19:02.063Z,0.60
2024-01-28T03:22:04.448Z,0.50
2024-01-28T03:25:07.146Z,0.40
2024-01-28T03:28:09.557Z,0.20
2024-01-28T03:31:11.857Z,0.10
2024-01-28T03:34:14.333Z,-0.10
2024-01-28T03:37:16.770Z,-0.10
2024-01-28T03:40:19.143Z,-0.10
2024-01-28T03:43:21.436Z,0.00
2024-01-28T03:46:23.775Z,0.00
2024-01-28T03:49:26.158Z,0.00
2024-01-28T03:52:28.285Z,0.00
2024-01-28T03:55:30.614Z,0.00
2024-01-28T03:58:33.023Z,0.00
2024-01-28T04:01:36.259Z,0.00
2024-01-28T04:04:38.839Z,0.00
2024-01-28T04:07:41.290Z,0.00
2024-01-28T04:10:43.342Z,-0.10
2024-01-28T04:13:45.597Z,-0.10
2024-01-28T04:16:47.880Z,-0.20
2024-01-28T04:19:50.660Z,-0.40
2024-01-28T04:22:53.051Z,-0.50
2024-01-28T04:25:55.115Z,-0.50
2024-01-28T04:28:57.421Z,-0.60
2024-01-28T04:31:59.837Z,-0.60
2024-01-28T04:35:02.748Z,-0.60
2024-01-28T04:38:05.037Z,-0.60
2024-01-28T04:41:07.364Z,-0.60
2024-01-28T04:44:09.759Z,-0.70
2024-01-28T04:47:12.076Z,-0.60
2024-01-28T04:50:14.482Z,-0.60
2024-01-28T04:53:16.958Z,-0.60
2024-01-28T04:56:19.400Z,-0.60
2024-01-28T04:59:21.485Z,-0.50
2024-01-28T05:02:23.590Z,-0.50
2024-01-28T05:05:25.963Z,-0.40
2024-01-28T05:08:28.383Z,-0.30
2024-01-28T05:11:33.849Z,-0.40
2024-01-28T05:14:36.152Z,-0.50
2024-01-28T05:17:38.296Z,-0.50
2024-01-28T05:20:40.805Z,-0.40
2024-01-28T05:23:42.838Z,-0.20
2024-01-28T05:26:45.439Z,-0.20
2024-01-28T05:29:47.515Z,-0.10
2024-01-28T05:32:50.131Z,0.00
2024-01-28T05:35:52.292Z,0.20
2024-01-28T05:38:55.956Z,0.30
2024-01-28T05:41:58.481Z,0.40
2024-01-28T05:45:00.754Z,0.40
2024-01-28T05:48:03.750Z,0.40
2024-01-28T05:51:06.240Z,0.50
2024-01-28T05:54:09.365Z,0.50
2024-01-28T05:57:11.950Z,0.50
2024-01-28T06:00:16.125Z,0.40
2024-01-28T06:03:18.473Z,0.30
2024-01-28T06:06:20.920Z,0.20
2024-01-28T06:09:23.401Z,0.10
2024-01-28T06:12:25.892Z,0.00
2024-01-28T06:15:28.686Z,-0.10
2024-01-28T06:18:31.063Z,-0.10
2024-01-28T06:21:33.523Z,-0.20
2024-01-28T06:24:36.733Z,-0.20
2024-01-28T06:27:38.829Z,-0.30
2024-01-28T06:30:41.268Z,-0.40
2024-01-28T06:33:44.908Z,-0.50
2024-01-28T06:36:47.673Z,-0.50
2024-01-28T06:39:52.833Z,-0.60
2024-01-28T06:42:55.360Z,-0.60
2024-01-28T06:45:57.510Z,-0.60
2024-01-28T06:48:59.878Z,-0.70
2024-01-28T06:52:02.750Z,-0.70
2024-01-28T06:55:06.709Z,-0.80
2024-01-28T06:58:08.877Z,-0.90
2024-01-28T07:01:12.458Z,-0.90
2024-01-28T07:04:15.217Z,-1.00
2024-01-28T07:07:17.712Z,-1.00
2024-01-28T07:10:20.125Z,-1.00
2024-01-28T07:13:22.444Z,-1.00
2024-01-28T07:16:24.583Z,-1.00
2024-01-28T07:19:26.976Z,-1.00
2024-01-28T07:22:31.118Z,-1.00
2024-01-28T07:25:33.461Z,-1.00
2024-01-28T07:28:36.075Z,-0.90
2024-01-28T07:31:39.233Z,-0.80
2024-01-28T07:34:42.143Z,-0.70
2024-01-28T07:37:44.501Z,-0.50
2024-01-28T07:40:46.909Z,-0.40
2024-01-28T07:43:49.212Z,-0.30
2024-01-28T07:46:53.000Z,-0.20
2024-01-28T07:49:55.379Z,0.00
2024-01-28T07:52:57.512Z,0.40
2024-01-28T07:56:01.294Z,0.90
2024-01-28T07:59:04.059Z,1.70
2024-01-28T08:02:06.454Z,2.70
2024-01-28T08:05:09.819Z,3.60
2024-01-28T08:08:14.653Z,4.40
2024-01-28T08:11:18.385Z,4.90
2024-01-28T08:14:20.682Z,5.60
2024-01-28T08:17:23.077Z,6.10
2024-01-28T08:20:25.514Z,6.70
2024-01-28T08:23:27.981Z,7.50
2024-01-28T08:26:30.161Z,8.00
2024-01-28T08:29:32.933Z,8.40
2024-01-28T08:32:35.762Z,8.80
2024-01-28T08:35:41.698Z,9.10
2024-01-28T08:38:45.177Z,9.50
2024-01-28T08:41:47.314Z,9.90
2024-01-28T08:44:49.728Z,10.10
2024-01-28T08:47:51.945Z,10.00
2024-01-28T08:50:54.259Z,10.20
2024-01-28T08:53:56.545Z,10.70
2024-01-28T08:56:58.684Z,10.60
2024-01-28T09:00:01.093Z,10.60
2024-01-28T09:03:03.915Z,10.80
2024-01-28T09:06:07.771Z,10.60
2024-01-28T09:09:10.855Z,10.70
2024-01-28T09:12:13.056Z,10.80
2024-01-28T09:15:16.035Z,10.90
2024-01-28T09:18:18.779Z,11.30
2024-01-28T09:21:21.267Z,11.10
2024-01-28T09:24:23.696Z,11.00
2024-01-28T09:27:26.132Z,11.30
2024-01-28T09:30:28.412Z,11.30
2024-01-28T09:33:30.788Z,10.90
2024-01-28T09:36:33.135Z,10.70
2024-01-28T09:39:35.648Z,11.20
2024-01-28T09:42:52.520Z,11.20
2024-01-28T09:45:55.117Z,11.10
2024-01-28T09:48:59.254Z,11.30
2024-01-28T09:52:01.763Z,11.30
2024-01-28T09:55:05.635Z,11.20
2024-01-28T09:58:08.698Z,11.20
2024-01-28T10:01:12.333Z,11.10
2024-01-28T10:04:17.230Z,11.40
2024-01-28T10:07:19.972Z,11.60
2024-01-28T10:10:22.126Z,11.40
2024-01-28T10:13:24.593Z,11.50
2024-01-28T10:16:31.640Z,11.80
2024-01-28T10:19:37.174Z,11.90
2024-01-28T10:22:40.608Z,12.10
2024-01-28T10:25:43.791Z,12.00
2024-01-28T10:28:46.141Z,12.20
2024-01-28T10:31:48.364Z,12.40
2024-01-28T10:34:51.041Z,12.20
2024-01-28T10:37:57.201Z,12.20
2024-01-28T10:41:01.236Z,12.30
2024-01-28T10:44:08.010Z,12.60
2024-01-28T10:47:13.694Z,12.50
2024-01-28T10:50:16.718Z,12.50
2024-01-28T10:53:19.764Z,11.90
2024-01-28T10:56:22.735Z,11.60
2024-01-28T10:59:24.991Z,11.40
2024-01-28T11:02:31.339Z,11.70
2024-01-28T11:05:38.897Z,11.80
2024-01-28T11:08:41.275Z,12.20
2024-01-28T11:11:44.015Z,12.20
2024-01-28T11:14:47.474Z,12.40
2024-01-28T11:17:51.508Z,12.10
2024-01-28T11:20:53.846Z,11.80
2024-01-28T11:23:56.816Z,12.00
2024-01-28T11:26:59.901Z,12.10
2024-01-28T11:30:03.021Z,11.90
2024-01-28T11:33:13.591Z,11.80
2024-01-28T11:36:26.845Z,11.90
2024-01-28T11:39:29.380Z,12.00
2024-01-28T11:42:31.905Z,12.20
2024-01-28T11:45:36.401Z,12.30
2024-01-28T11:48:38.946Z,12.40
2024-01-28T11:51:41.200Z,12.40
2024-01-28T11:54:46.089Z,12.40
2024-01-28T11:57:50.000Z,12.10
2024-01-28T12:00:53.197Z,12.20
2024-01-28T12:03:56.184Z,12.30
2024-01-28T12:07:00.694Z,12.70
2024-01-28T12:10:06.889Z,12.80
2024-01-28T12:13:13.445Z,12.50
2024-01-28T12:16:22.977Z,12.90
2024-01-28T12:19:25.136Z,13.20
2024-01-28T12:22:27.526Z,13.70
2024-01-28T12:25:29.878Z,13.80
2024-01-28T12:28:32.336Z,13.80
2024-01-28T12:31:35.212Z,14.10
2024-01-28T12:34:40.782Z,14.20
2024-01-28T12:37:43.201Z,14.50
2024-01-28T12:40:45.555Z,14.30
2024-01-28T12:43:53.098Z,14.40
2024-01-28T12:46:56.034Z,14.40
2024-01-28T12:49:58.603Z,14.80
2024-01-28T12:53:01.163Z,14.80
2024-01-28T12:56:03.417Z,14.80
2024-01-28T12:59:05.517Z,14.90
2024-01-28T13:02:09.096Z,14.80
2024-01-28T13:05:15.779Z,14.60
2024-01-28T13:08:18.356Z,14.80
2024-01-28T13:11:20.744Z,14.60
2024-01-28T13:14:22.909Z,14.70
2024-01-28T13:17:27.686Z,14.90
2024-01-28T13:20:30.382Z,14.60
2024-01-28T13:23:32.718Z,14.60
2024-01-28T13:26:35.107Z,15.00
2024-01-28T13:29:40.878Z,15.10
2024-01-28T13:32:44.606Z,15.00
2024-01-28T13:35:46.921Z,14.70
2024-01-28T13:38:49.119Z,14.50
2024-01-28T13:41:51.227Z,14.90
2024-01-28T13:44:53.413Z,15.20
2024-01-28T13:47:56.294Z,15.40
2024-01-28T13:50:58.663Z,15.30
2024-01-28T13:54:01.066Z,15.10
2024-01-28T13:57:04.123Z,15.10
2024-01-28T14:00:09.269Z,15.10
2024-01-28T14:03:13.099Z,15.20
2024-01-28T14:06:15.574Z,15.10
2024-01-28T14:09:18.231Z,15.20
2024-01-28T14:12:20.406Z,15.30
2024-01-28T14:15:22.604Z,15.30
2024-01-28T14:18:24.784Z,15.40
2024-01-28T14:21:29.840Z,15.40
2024-01-28T14:24:32.330Z,15.40
2024-01-28T14:27:34.810Z,15.10
2024-01-28T14:30:37.030Z,15.00
2024-01-28T14:33:40.177Z,15.10
2024-01-28T14:36:42.710Z,14.60
2024-01-28T14:39:46.811Z,14.30
2024-01-28T14:42:49.026Z,14.10
2024-01-28T14:45:51.830Z,14.20
2024-01-28T14:48:54.097Z,14.10
2024-01-28T14:51:56.380Z,14.20
2024-01-28T14:55:00.255Z,14.40
2024-01-28T14:58:02.772Z,14.20
2024-01-28T15:01:05.323Z,13.80
2024-01-28T15:04:07.556Z,13.50
2024-01-28T15:07:09.850Z,13.20
2024-01-28T15:10:13.550Z,12.70
2024-01-28T15:13:16.102Z,12.20
2024-01-28T15:16:18.423Z,11.60
2024-01-28T15:19:21.926Z,10.70
2024-01-28T15:22:27.301Z,9.90
2024-01-28T15:25:29.914Z,9.30
2024-01-28T15:28:38.658Z,8.50
2024-01-28T15:31:42.253Z,7.90
2024-01-28T15:34:45.809Z,7.40
2024-01-28T15:37:48.051Z,7.10
2024-01-28T15:40:50.125Z,6.60
2024-01-28T15:43:52.968Z,6.10
2024-01-28T15:46:55.389Z,5.70
2024-01-28T15:49:58.244Z,5.50
2024-01-28T15:53:00.692Z,5.20
2024-01-28T15:56:03.056Z,5.00
2024-01-28T15:59:05.632Z,4.80
2024-01-28T16:02:07.737Z,4.50
2024-01-28T16:05:11.051Z,4.00
2024-01-28T16:08:13.826Z,3.40
2024-01-28T16:11:18.383Z,3.20
2024-01-28T16:14:20.563Z,3.00
2024-01-28T16:17:25.071Z,2.80
2024-01-28T16:20:27.794Z,2.70
2024-01-28T16:23:30.110Z,2.50
2024-01-28T16:26:32.625Z,2.20
2024-01-28T16:29:35.122Z,1.90
2024-01-28T16:32:37.361Z,1.70
2024-01-28T16:35:40.374Z,1.70
2024-01-28T16:38:42.827Z,1.70
2024-01-28T16:41:45.101Z,1.60
2024-01-28T16:44:47.186Z,1.40
2024-01-28T16:47:49.667Z,1.30
2024-01-28T16:50:52.278Z,1.20
2024-01-28T16:53:54.336Z,1.20
2024-01-28T16:56:56.943Z,1.10
2024-01-28T16:59:59.311Z,0.90
2024-01-28T17:03:01.932Z,0.50
2024-01-28T17:06:04.672Z,0.30
2024-01-28T17:09:07.021Z,0.30
2024-01-28T17:12:09.149Z,0.30
2024-01-28T17:15:12.233Z,0.20
2024-01-28T17:18:14.602Z,0.20
2024-01-28T17:21:19.384Z,0.20
2024-01-28T17:24:23.295Z,0.20
2024-01-28T17:27:25.597Z,-0.30
2024-01-28T17:30:28.173Z,-0.50
2024-01-28T17:33:30.838Z,-0.60
2024-01-28T17:36:36.564Z,-0.70
2024-01-28T17:39:39.648Z,-0.70
2024-01-28T17:42:43.474Z,-0.80
2024-01-28T17:45:46.575Z,-0.80
2024-01-28T17:48:49.536Z,-0.80
2024-01-28T17:51:52.346Z,-0.80
2024-01-28T17:54:55.937Z,-0.70
2024-01-28T17:57:58.920Z,-0.70
2024-01-28T18:01:03.998Z,-0.70
2024-01-28T18:04:07.286Z,-0.80
2024-01-28T18:07:10.472Z,-1.10
2024-01-28T18:10:13.946Z,-1.30
2024-01-28T18:13:17.107Z,-1.20
2024-01-28T18:16:21.717Z,-1.20
2024-01-28T18:19:25.300Z,-1.20
2024-01-28T18:22:28.932Z,-1.20
2024-01-28T18:25:33.756Z,-1.40
2024-01-28T18:28:37.604Z,-1.50
2024-01-28T18:31:43.632Z,-1.60
2024-01-28T18:34:48.160Z,-1.60
2024-01-28T18:37:51.466Z,-1.70
2024-01-28T18:40:56.350Z,-1.70
2024-01-28T18:44:02.839Z,-1.70
2024-01-28T18:47:07.311Z,-1.60
2024-01-28T18:50:11.392Z,-1.60
2024-01-28T18:53:14.797Z,-1.70
2024-01-28T18:56:19.538Z,-1.70
2024-01-28T18:59:22.683Z,-1.90
2024-01-28T19:02:26.435Z,-2.00
2024-01-28T19:05:30.485Z,-2.00
2024-01-28T19:08:33.952Z,-2.10
2024-01-28T19:11:39.803Z,-2.00
2024-01-28T19:14:43.577Z,-1.90
2024-01-28T19:17:47.226Z,-2.00
2024-01-28T19:20:52.438Z,-2.00
2024-01-28T19:23:56.079Z,-2.00
2024-01-28T19:26:59.786Z,-2.10
2024-01-28T19:30:02.925Z,-2.10
2024-01-28T19:33:07.681Z,-2.20
2024-01-28T19:36:11.258Z,-2.30
2024-01-28T19:39:16.407Z,-2.20
2024-01-28T19:42:20.278Z,-2.20
2024-01-28T19:45:24.929Z,-2.20
2024-01-28T19:48:28.802Z,-2.20
2024-01-28T19:51:32.418Z,-2.30
2024-01-28T19:54:35.736Z,-2.30
2024-01-28T19:57:39.229Z,-2.30
2024-01-28T20:00:44.069Z,-2.30
2024-01-28T20:03:47.405Z,-2.30
2024-01-28T20:06:51.175Z,-2.40
2024-01-28T20:10:01.060Z,-2.40
2024-01-28T20:13:06.157Z,-2.40
2024-01-28T20:16:09.624Z,-2.30
2024-01-28T20:19:14.324Z,-2.40
2024-01-28T20:22:17.824Z,-2.40
2024-01-28T20:25:21.238Z,-2.50
2024-01-28T20:28:24.949Z,-2.50
2024-01-28T20:31:28.466Z,-2.50
2024-01-28T20:34:32.068Z,-2.50
2024-01-28T20:37:35.736Z,-2.50
2024-01-28T20:40:40.541Z,-2.50
2024-01-28T20:43:43.818Z,-2.70
2024-01-28T20:46:46.748Z,-2.70
2024-01-28T20:49:50.738Z,-2.70
2024-01-28T20:52:54.287Z,-2.80
2024-01-28T20:55:57.406Z,-2.80
2024-01-28T20:59:00.620Z,-2.90
2024-01-28T21:02:06.500Z,-2.90
2024-01-28T21:05:09.703Z,-2.90
2024-01-28T21:08:13.084Z,-2.90
2024-01-28T21:11:16.670Z,-3.00
2024-01-28T21:14:19.250Z,-3.00
2024-01-28T21:17:21.802Z,-3.10
2024-01-28T21:20:24.935Z,-3.10
2024-01-28T21:23:27.268Z,-3.10
2024-01-28T21:26:29.600Z,-3.00
2024-01-28T21:29:33.751Z,-3.10
2024-01-28T21:32:36.260Z,-3.10
2024-01-28T21:35:39.021Z,-3.10
2024-01-28T21:38:41.790Z,-3.10
2024-01-28T21:41:44.218Z,-3.20
2024-01-28T21:44:46.358Z,-3.20
2024-01-28T21:47:48.617Z,-3.20
2024-01-28T21:50:50.922Z,-3.20
2024-01-28T21:53:53.625Z,-3.20
2024-01-28T21:56:55.989Z,-3.20
2024-01-28T21:59:58.360Z,-3.20
2024-01-28T22:03:00.648Z,-3.20
2024-01-28T22:06:03.051Z,-3.20
2024-01-28T22:09:05.566Z,-3.30
2024-01-28T22:12:08.043Z,-3.30
2024-01-28T22:15:10.432Z,-3.40
2024-01-28T22:18:12.842Z,-3.30
2024-01-28T22:21:16.243Z,-3.40
2024-01-28T22:24:18.393Z,-3.40
2024-01-28T22:27:21.386Z,-3.50
2024-01-28T22:30:24.984Z,-3.50
2024-01-28T22:33:27.563Z,-3.50
2024-01-28T22:36:30.020Z,-3.60
2024-01-28T22:39:32.561Z,-3.60
2024-01-28T22:42:34.871Z,-3.60
2024-01-28T22:45:37.342Z,-3.60
2024-01-28T22:48:40.001Z,-3.60
2024-01-28T22:51:42.442Z,-3.70
2024-01-28T22:54:45.498Z,-3.70
2024-01-28T22:57:47.875Z,-3.70
2024-01-28T23:00:50.824Z,-3.70
2024-01-28T23:03:53.805Z,-3.80
2024-01-28T23:06:56.202Z,-3.80
2024-01-28T23:09:58.337Z,-3.80
2024-01-28T23:13:06.174Z,-3.90
2024-01-28T23:16:09.013Z,-4.00
2024-01-28T23:19:11.288Z,-3.90
2024-01-28T23:22:13.407Z,-3.90
2024-01-28T23:25:15.969Z,-3.80
2024-01-28T23:28:18.775Z,-3.80
2024-01-28T23:31:21.376Z,-3.80
2024-01-28T23:34:23.600Z,-3.90
2024-01-28T23:37:25.979Z,-3.90
2024-01-28T23:40:28.419Z,-3.90
2024-01-28T23:43:30.830Z,-3.90
2024-01-28T23:46:33.250Z,-3.90
2024-01-28T23:49:35.732Z,-3.90
2024-01-28T23:52:38.061Z,-4.00
2024-01-28T23:55:40.425Z,-4.10
2024-01-28T23:58:42.797Z,-4.10
